Time;durP1;ratioP1;P1;durP2;ratioP2;P2;SDS_P1;SDS_P2;PMS_P1;PMS_P2;Temp;Humidity;BMP_temperature;BMP_pressure;BME280_temperature;BME280_humidity;BME280_pressure;Samples;Min_cycle;Max_cycle;Signal;HPM_P1;HPM_P2
2023/12/31 00:00:27;;;;;;;2.25;2.05;;;8.10;99.90;;;;;;4968464;28;20054;-75
2023/12/31 00:02:53;;;;;;;2.03;1.60;;;8.10;99.90;;;;;;4983922;28;20088;-75
2023/12/31 00:05:19;;;;;;;1.58;1.33;;;8.10;99.90;;;;;;5026278;28;20452;-75
2023/12/31 00:07:45;;;;;;;3.17;2.42;;;8.10;99.90;;;;;;4995365;28;20061;-75
2023/12/31 00:10:11;;;;;;;3.50;1.58;;;8.10;99.90;;;;;;5022180;28;20054;-75
2023/12/31 00:12:36;;;;;;;1.70;1.60;;;8.20;99.90;;;;;;4990080;28;20096;-74
2023/12/31 00:15:03;;;;;;;2.90;1.55;;;8.10;99.90;;;;;;4994450;28;20472;-75
2023/12/31 00:17:28;;;;;;;2.40;1.25;;;8.20;99.90;;;;;;4984192;28;20042;-75
2023/12/31 00:19:54;;;;;;;2.15;1.73;;;8.20;99.90;;;;;;4984908;28;20046;-74
2023/12/31 00:22:19;;;;;;;4.95;1.88;;;8.20;99.90;;;;;;4994604;28;20046;-74
2023/12/31 00:24:45;;;;;;;3.35;1.50;;;8.20;99.90;;;;;;5017143;28;20108;-75
2023/12/31 00:27:10;;;;;;;4.13;1.85;;;8.20;99.90;;;;;;4983735;28;20051;-75
2023/12/31 00:29:36;;;;;;;2.53;1.33;;;8.20;99.90;;;;;;5016607;28;20046;-75
2023/12/31 00:32:02;;;;;;;2.15;1.60;;;8.20;99.90;;;;;;4984716;28;20512;-75
2023/12/31 00:34:27;;;;;;;1.75;1.45;;;8.20;99.90;;;;;;4983427;28;20461;-75
2023/12/31 00:36:53;;;;;;;3.22;1.63;;;8.10;99.90;;;;;;4972782;28;20096;-75
2023/12/31 00:39:18;;;;;;;3.67;1.83;;;8.10;99.90;;;;;;4998647;28;20066;-75
2023/12/31 00:41:44;;;;;;;3.17;1.65;;;8.10;99.90;;;;;;5025727;28;20046;-74
2023/12/31 00:44:09;;;;;;;2.33;1.60;;;8.10;99.90;;;;;;5023195;28;20050;-75
2023/12/31 00:46:35;;;;;;;2.28;1.55;;;8.10;99.90;;;;;;5033528;28;20135;-75
2023/12/31 00:49:00;;;;;;;2.58;2.00;;;8.10;99.90;;;;;;4991746;28;20050;-75
2023/12/31 00:51:26;;;;;;;2.10;1.77;;;8.10;99.90;;;;;;4998858;28;20111;-75
2023/12/31 00:53:52;;;;;;;2.35;1.77;;;8.00;99.90;;;;;;4967205;28;20092;-75
2023/12/31 00:56:17;;;;;;;2.47;1.70;;;8.00;99.90;;;;;;4984788;28;20050;-75
2023/12/31 00:58:43;;;;;;;4.25;1.85;;;8.00;99.90;;;;;;4984717;28;20043;-74
2023/12/31 01:01:08;;;;;;;2.50;1.98;;;8.00;99.90;;;;;;4984927;28;20488;-74
2023/12/31 01:03:34;;;;;;;1.92;1.42;;;8.00;99.90;;;;;;4989587;28;20446;-75
2023/12/31 01:06:04;;;;;;;1.92;1.38;;;8.00;99.90;;;;;;4982109;28;20034;-75
2023/12/31 01:08:30;;;;;;;3.38;1.95;;;8.00;99.90;;;;;;4974594;28;20058;-75
2023/12/31 01:10:55;;;;;;;1.50;1.40;;;8.00;99.90;;;;;;4991694;28;20050;-75
2023/12/31 01:13:21;;;;;;;2.92;2.28;;;8.00;99.90;;;;;;4984361;28;20053;-75
2023/12/31 01:15:47;;;;;;;2.70;1.58;;;8.00;99.90;;;;;;4983657;28;20045;-75
2023/12/31 01:18:12;;;;;;;3.92;2.10;;;8.00;99.90;;;;;;4987318;28;20090;-75
2023/12/31 01:20:38;;;;;;;3.58;2.00;;;8.00;99.90;;;;;;4985828;28;20408;-75
2023/12/31 01:23:03;;;;;;;1.33;1.10;;;8.00;99.90;;;;;;5001633;28;20046;-75
2023/12/31 01:25:29;;;;;;;2.03;1.27;;;8.00;99.90;;;;;;5003542;28;20046;-75
2023/12/31 01:27:55;;;;;;;4.45;2.05;;;8.00;99.90;;;;;;4999276;28;20045;-75
2023/12/31 01:30:22;;;;;;;1.35;1.00;;;8.00;99.90;;;;;;4994524;28;20220;-75
2023/12/31 01:32:48;;;;;;;1.42;1.13;;;8.00;99.90;;;;;;4997704;28;20042;-75
2023/12/31 01:35:14;;;;;;;2.10;1.13;;;8.00;99.90;;;;;;4986786;28;20049;-74
2023/12/31 01:37:39;;;;;;;1.63;1.40;;;7.90;99.90;;;;;;4988568;28;20485;-74
2023/12/31 01:40:05;;;;;;;2.10;1.63;;;7.90;99.90;;;;;;4983826;28;20121;-74
2023/12/31 01:42:31;;;;;;;4.15;2.63;;;7.90;99.90;;;;;;4995990;28;20085;-74
2023/12/31 01:44:56;;;;;;;1.00;0.90;;;7.90;99.90;;;;;;4992769;28;20043;-75
2023/12/31 01:47:22;;;;;;;1.17;1.08;;;7.90;99.90;;;;;;4993961;28;20413;-75
2023/12/31 01:49:49;;;;;;;1.65;1.10;;;7.90;99.90;;;;;;4984176;28;20046;-75
2023/12/31 01:52:15;;;;;;;1.33;1.00;;;7.90;99.90;;;;;;4989303;28;20045;-74
2023/12/31 01:54:41;;;;;;;1.42;1.30;;;8.00;99.90;;;;;;5028118;28;20042;-75
2023/12/31 01:57:07;;;;;;;1.90;1.60;;;8.00;99.90;;;;;;4991584;28;20567;-75
2023/12/31 01:59:32;;;;;;;2.28;1.55;;;8.00;99.90;;;;;;4966637;28;20038;-75
2023/12/31 02:01:59;;;;;;;0.82;0.82;;;7.90;99.90;;;;;;5011400;28;20497;-75
2023/12/31 02:04:33;;;;;;;1.20;1.00;;;7.90;99.90;;;;;;5018039;28;20374;-75
2023/12/31 02:07:00;;;;;;;1.70;0.90;;;7.90;99.90;;;;;;4984304;28;20035;-75
2023/12/31 02:09:26;;;;;;;4.35;1.00;;;7.90;99.90;;;;;;4991950;28;20756;-75
2023/12/31 02:11:51;;;;;;;2.00;0.68;;;7.90;99.90;;;;;;4970338;28;20074;-75
2023/12/31 02:14:17;;;;;;;1.27;0.80;;;7.90;99.90;;;;;;4982385;28;20042;-74
2023/12/31 02:16:42;;;;;;;3.17;1.00;;;7.90;99.90;;;;;;4983202;28;20046;-75
2023/12/31 02:19:08;;;;;;;2.65;1.63;;;7.90;99.90;;;;;;4996529;28;20034;-74
2023/12/31 02:21:34;;;;;;;1.67;0.90;;;7.90;99.90;;;;;;5000144;28;20149;-75
2023/12/31 02:24:00;;;;;;;6.63;0.85;;;7.90;99.90;;;;;;5000470;28;20030;-74
2023/12/31 02:26:28;;;;;;;1.35;0.85;;;7.80;99.90;;;;;;4995690;28;20496;-75
2023/12/31 02:28:53;;;;;;;1.13;1.02;;;7.80;99.90;;;;;;5002556;28;20044;-75
2023/12/31 02:31:19;;;;;;;1.55;1.45;;;7.80;99.90;;;;;;4999437;28;20460;-75
2023/12/31 02:33:44;;;;;;;2.05;0.73;;;7.80;99.90;;;;;;4982576;28;20281;-75
2023/12/31 02:36:10;;;;;;;0.60;0.40;;;7.80;99.90;;;;;;4990813;28;20092;-74
2023/12/31 02:38:36;;;;;;;1.02;0.93;;;7.80;99.90;;;;;;4999279;28;20046;-75
2023/12/31 02:41:01;;;;;;;1.17;0.70;;;7.80;99.90;;;;;;5002264;28;20125;-73
2023/12/31 02:43:27;;;;;;;4.35;1.02;;;7.80;99.90;;;;;;4999096;28;20124;-74
2023/12/31 02:45:53;;;;;;;1.58;0.73;;;7.80;99.90;;;;;;5026668;28;20046;-75
2023/12/31 02:48:19;;;;;;;2.53;1.08;;;7.80;99.90;;;;;;4992014;28;20030;-74
2023/12/31 02:50:44;;;;;;;0.88;0.65;;;7.80;99.90;;;;;;4989407;28;20528;-74
2023/12/31 02:53:10;;;;;;;0.95;0.85;;;7.70;99.90;;;;;;4999477;28;20038;-74
2023/12/31 02:55:35;;;;;;;2.05;0.93;;;7.80;99.90;;;;;;4981927;28;20506;-74
2023/12/31 02:58:01;;;;;;;0.90;0.75;;;7.80;99.90;;;;;;5021067;28;20157;-74
2023/12/31 03:00:26;;;;;;;1.20;0.77;;;7.70;99.90;;;;;;4993265;28;20050;-74
2023/12/31 03:02:52;;;;;;;1.73;0.90;;;7.70;99.90;;;;;;4999557;28;20078;-74
2023/12/31 03:05:17;;;;;;;1.85;1.00;;;7.80;99.90;;;;;;5005249;28;20044;-74
2023/12/31 03:07:43;;;;;;;0.93;0.60;;;7.80;99.90;;;;;;4988231;28;20054;-74
2023/12/31 03:10:09;;;;;;;1.00;0.50;;;7.80;99.90;;;;;;5005423;28;20426;-75
2023/12/31 03:12:34;;;;;;;1.70;0.55;;;7.70;99.90;;;;;;4970527;28;20085;-74
2023/12/31 03:15:00;;;;;;;2.55;0.80;;;7.70;99.90;;;;;;4998633;28;20050;-74
2023/12/31 03:17:26;;;;;;;2.25;0.85;;;7.70;99.90;;;;;;5000618;28;20046;-74
2023/12/31 03:19:51;;;;;;;1.17;0.57;;;7.70;99.90;;;;;;5004349;28;20156;-74
2023/12/31 03:22:17;;;;;;;1.08;0.50;;;7.70;99.90;;;;;;5005818;28;20049;-74
2023/12/31 03:24:43;;;;;;;0.55;0.55;;;7.80;99.90;;;;;;5004741;28;20046;-74
2023/12/31 03:27:09;;;;;;;1.30;0.73;;;7.80;99.90;;;;;;4998433;28;20038;-74
2023/12/31 03:29:35;;;;;;;0.60;0.52;;;7.80;99.90;;;;;;4988781;28;20157;-74
2023/12/31 03:32:01;;;;;;;1.98;0.95;;;7.80;99.90;;;;;;4985054;28;20038;-74
2023/12/31 03:34:26;;;;;;;1.13;0.40;;;7.80;99.90;;;;;;4999940;28;20518;-74
2023/12/31 03:36:52;;;;;;;2.15;0.80;;;7.80;99.90;;;;;;5003588;28;20045;-74
2023/12/31 03:39:18;;;;;;;0.57;0.55;;;7.80;99.90;;;;;;5005609;28;20049;-74
2023/12/31 03:41:43;;;;;;;1.42;1.08;;;7.70;99.90;;;;;;4998564;28;20045;-74
2023/12/31 03:44:09;;;;;;;0.47;0.47;;;7.80;99.90;;;;;;5022280;28;20046;-74
2023/12/31 03:46:35;;;;;;;0.40;0.40;;;7.80;99.90;;;;;;4984181;28;20185;-74
2023/12/31 03:49:00;;;;;;;1.95;0.50;;;7.80;99.90;;;;;;5024965;28;20129;-74
2023/12/31 03:51:26;;;;;;;0.80;0.68;;;7.80;99.90;;;;;;5004848;28;20045;-74
2023/12/31 03:53:51;;;;;;;1.70;0.88;;;7.80;99.90;;;;;;5025363;28;20054;-74
2023/12/31 03:56:17;;;;;;;0.40;0.40;;;7.80;99.90;;;;;;4989339;28;20034;-74
2023/12/31 03:58:43;;;;;;;2.63;1.38;;;7.80;99.90;;;;;;5003985;28;20042;-74
2023/12/31 04:01:08;;;;;;;0.68;0.52;;;7.80;99.90;;;;;;4998822;28;20045;-74
2023/12/31 04:03:34;;;;;;;0.32;0.32;;;7.80;99.90;;;;;;4995356;28;20049;-74
2023/12/31 04:05:59;;;;;;;0.47;0.45;;;7.80;99.90;;;;;;4983970;28;20051;-74
2023/12/31 04:08:25;;;;;;;0.30;0.30;;;7.80;99.90;;;;;;4985570;28;20058;-74
2023/12/31 04:10:51;;;;;;;1.02;0.82;;;7.90;99.90;;;;;;4999230;28;20054;-75
2023/12/31 04:13:20;;;;;;;1.27;0.60;;;7.90;99.90;;;;;;4997939;28;20158;-74
2023/12/31 04:15:46;;;;;;;0.60;0.60;;;7.90;99.90;;;;;;5002274;28;20109;-74
2023/12/31 04:18:11;;;;;;;0.63;0.63;;;7.80;99.90;;;;;;4972699;28;20343;-74
2023/12/31 04:20:37;;;;;;;1.13;0.80;;;7.90;99.90;;;;;;4984028;28;20649;-74
2023/12/31 04:23:03;;;;;;;1.85;0.50;;;7.90;99.90;;;;;;4983893;28;20039;-74
2023/12/31 04:25:28;;;;;;;0.63;0.50;;;7.90;99.90;;;;;;4983825;28;20132;-74
2023/12/31 04:27:54;;;;;;;1.95;1.00;;;7.90;99.90;;;;;;5000031;28;20043;-74
2023/12/31 04:30:19;;;;;;;0.70;0.68;;;7.90;99.90;;;;;;4986021;28;20441;-74
2023/12/31 04:32:45;;;;;;;0.77;0.43;;;7.90;99.90;;;;;;4990086;28;20050;-74
2023/12/31 04:35:11;;;;;;;0.40;0.40;;;7.90;99.90;;;;;;5003954;28;20052;-74
2023/12/31 04:37:37;;;;;;;2.25;0.82;;;7.90;99.90;;;;;;4998595;28;20063;-74
2023/12/31 04:40:04;;;;;;;1.55;0.75;;;7.90;99.90;;;;;;4983309;28;20042;-74
2023/12/31 04:42:29;;;;;;;2.63;0.85;;;7.90;99.90;;;;;;4999112;28;20045;-74
2023/12/31 04:44:56;;;;;;;0.45;0.45;;;7.90;99.90;;;;;;4997230;28;20056;-74
2023/12/31 04:47:21;;;;;;;1.38;1.27;;;7.90;99.90;;;;;;5002697;28;20082;-74
2023/12/31 04:49:47;;;;;;;0.63;0.55;;;7.90;99.90;;;;;;4983796;28;20074;-74
2023/12/31 04:52:12;;;;;;;0.77;0.60;;;7.90;99.90;;;;;;4985319;28;20671;-74
2023/12/31 04:54:38;;;;;;;0.60;0.35;;;7.90;99.90;;;;;;5035586;28;20152;-75
2023/12/31 04:57:04;;;;;;;1.63;0.60;;;7.90;99.90;;;;;;5003687;28;20073;-74
2023/12/31 04:59:30;;;;;;;0.70;0.55;;;7.90;99.90;;;;;;5001059;28;20621;-75
2023/12/31 05:01:55;;;;;;;1.10;0.50;;;7.90;99.90;;;;;;4983435;28;20042;-74
2023/12/31 05:04:21;;;;;;;6.05;0.93;;;7.90;99.90;;;;;;4998439;28;20122;-74
2023/12/31 05:06:46;;;;;;;2.38;0.85;;;7.90;99.90;;;;;;5034493;28;20684;-74
2023/12/31 05:09:12;;;;;;;0.82;0.82;;;7.90;99.90;;;;;;5035052;28;20096;-74
2023/12/31 05:11:38;;;;;;;0.80;0.68;;;7.90;99.90;;;;;;5024899;28;20046;-74
2023/12/31 05:14:04;;;;;;;0.82;0.82;;;7.90;99.90;;;;;;4987812;28;20053;-74
2023/12/31 05:16:33;;;;;;;1.67;0.90;;;7.90;99.90;;;;;;4983388;28;20481;-74
2023/12/31 05:19:00;;;;;;;1.02;0.63;;;8.00;99.90;;;;;;4983927;28;20520;-74
2023/12/31 05:21:25;;;;;;;0.88;0.88;;;7.90;99.90;;;;;;4984398;28;20467;-75
2023/12/31 05:23:51;;;;;;;0.77;0.47;;;7.90;99.90;;;;;;4985193;28;20046;-74
2023/12/31 05:26:17;;;;;;;0.57;0.57;;;8.00;99.90;;;;;;5002375;28;20450;-74
2023/12/31 05:28:42;;;;;;;4.70;1.67;;;8.00;99.90;;;;;;5002530;28;20444;-74
2023/12/31 05:31:09;;;;;;;1.60;0.75;;;7.90;99.90;;;;;;5002222;28;20064;-74
2023/12/31 05:33:35;;;;;;;2.75;0.90;;;7.90;99.90;;;;;;4993518;28;20050;-74
2023/12/31 05:36:00;;;;;;;0.70;0.70;;;7.90;99.90;;;;;;4994228;28;20049;-74
2023/12/31 05:38:26;;;;;;;0.43;0.30;;;8.00;99.90;;;;;;4998624;28;20370;-74
2023/12/31 05:40:51;;;;;;;1.80;1.15;;;8.00;99.90;;;;;;4982665;28;20065;-74
2023/12/31 05:43:17;;;;;;;0.95;0.50;;;8.00;99.90;;;;;;4992300;28;20079;-74
2023/12/31 05:45:43;;;;;;;1.45;0.60;;;7.90;99.90;;;;;;4981835;28;20665;-74
2023/12/31 05:48:08;;;;;;;0.80;0.50;;;8.00;99.90;;;;;;4993757;28;20473;-74
2023/12/31 05:50:34;;;;;;;0.85;0.70;;;8.00;99.90;;;;;;4993670;28;20516;-74
2023/12/31 05:52:59;;;;;;;0.77;0.60;;;8.00;99.90;;;;;;4982668;28;20042;-74
2023/12/31 05:55:25;;;;;;;1.05;0.70;;;8.00;99.90;;;;;;5019319;28;20046;-74
2023/12/31 05:57:50;;;;;;;0.90;0.73;;;8.00;99.90;;;;;;4997050;28;20049;-75
2023/12/31 06:00:16;;;;;;;0.82;0.82;;;8.00;99.90;;;;;;4992802;28;20038;-74
2023/12/31 06:02:42;;;;;;;1.35;0.80;;;8.00;99.90;;;;;;4979729;28;20046;-74
2023/12/31 06:05:08;;;;;;;0.75;0.50;;;8.00;99.90;;;;;;4969473;28;20068;-74
2023/12/31 06:07:34;;;;;;;1.30;1.20;;;8.00;99.90;;;;;;4996226;28;20052;-74
2023/12/31 06:10:00;;;;;;;2.78;0.45;;;8.00;99.90;;;;;;4995339;28;20125;-74
2023/12/31 06:12:26;;;;;;;2.42;0.80;;;8.00;99.90;;;;;;5031329;28;20049;-74
2023/12/31 06:14:51;;;;;;;1.05;0.93;;;8.00;99.90;;;;;;5002369;28;20058;-74
2023/12/31 06:17:17;;;;;;;0.70;0.65;;;8.10;99.90;;;;;;4998764;28;20069;-74
2023/12/31 06:19:43;;;;;;;2.17;0.93;;;8.10;99.90;;;;;;5026956;28;20034;-75
2023/12/31 06:22:08;;;;;;;0.80;0.60;;;8.10;99.90;;;;;;5002225;28;20069;-74
2023/12/31 06:24:34;;;;;;;0.60;0.60;;;8.10;99.90;;;;;;5001912;28;20519;-74
2023/12/31 06:27:00;;;;;;;1.27;0.70;;;8.10;99.90;;;;;;4996517;28;20121;-74
2023/12/31 06:29:26;;;;;;;0.80;0.80;;;8.10;99.90;;;;;;5002021;28;20050;-74
2023/12/31 06:31:51;;;;;;;1.33;1.13;;;8.10;99.90;;;;;;4986690;28;20306;-74
2023/12/31 06:34:17;;;;;;;1.15;0.60;;;8.10;99.90;;;;;;4990843;28;20038;-74
2023/12/31 06:36:43;;;;;;;1.65;0.60;;;8.10;99.90;;;;;;4987966;28;20041;-74
2023/12/31 06:39:10;;;;;;;0.85;0.82;;;8.10;99.90;;;;;;5001838;28;20451;-74
2023/12/31 06:41:35;;;;;;;2.97;1.25;;;8.10;99.90;;;;;;5000173;28;20057;-74
2023/12/31 06:44:01;;;;;;;1.10;0.63;;;8.10;99.90;;;;;;4985680;28;20042;-74
2023/12/31 06:46:27;;;;;;;0.80;0.50;;;8.10;99.90;;;;;;4992146;28;20729;-74
2023/12/31 06:48:52;;;;;;;0.98;0.85;;;8.20;99.90;;;;;;4981466;28;20456;-74
2023/12/31 06:51:18;;;;;;;1.38;0.95;;;8.20;99.90;;;;;;4994201;28;20133;-74
2023/12/31 06:53:43;;;;;;;2.15;0.80;;;8.20;99.90;;;;;;4986193;28;20046;-74
2023/12/31 06:56:09;;;;;;;1.13;0.80;;;8.20;99.90;;;;;;4986761;28;20052;-74
2023/12/31 06:58:36;;;;;;;1.08;0.95;;;8.20;99.90;;;;;;4995599;28;20052;-74
2023/12/31 07:01:03;;;;;;;1.20;0.80;;;8.20;99.90;;;;;;4988992;28;20069;-74
2023/12/31 07:03:29;;;;;;;1.60;0.77;;;8.20;99.90;;;;;;5001828;28;20424;-75
2023/12/31 07:05:54;;;;;;;1.20;1.10;;;8.20;99.90;;;;;;5034145;28;20044;-74
2023/12/31 07:08:20;;;;;;;2.92;1.08;;;8.30;99.90;;;;;;5024785;28;20047;-75
2023/12/31 07:10:46;;;;;;;2.40;1.27;;;8.20;99.90;;;;;;5019643;28;20504;-74
2023/12/31 07:13:11;;;;;;;2.28;1.10;;;8.20;99.90;;;;;;5005491;28;20100;-74
2023/12/31 07:15:37;;;;;;;0.82;0.82;;;8.20;99.90;;;;;;5036772;28;20124;-74
2023/12/31 07:18:03;;;;;;;1.77;1.25;;;8.20;99.90;;;;;;4996106;28;20489;-74
2023/12/31 07:20:28;;;;;;;1.63;1.17;;;8.20;99.90;;;;;;5005666;28;20504;-74
2023/12/31 07:22:54;;;;;;;1.48;1.23;;;8.20;99.90;;;;;;4984927;28;20042;-75
2023/12/31 07:25:21;;;;;;;2.63;1.65;;;8.20;99.90;;;;;;4989948;28;20489;-77
2023/12/31 07:27:46;;;;;;;1.05;0.95;;;8.20;99.90;;;;;;4991044;28;20049;-77
2023/12/31 07:30:12;;;;;;;1.98;1.70;;;8.20;99.90;;;;;;4993017;28;20046;-77
2023/12/31 07:32:38;;;;;;;1.20;1.10;;;8.20;99.90;;;;;;4999971;28;20041;-76
2023/12/31 07:35:04;;;;;;;3.95;1.40;;;8.20;99.90;;;;;;4992986;28;20070;-76
2023/12/31 07:37:30;;;;;;;1.35;1.25;;;8.20;99.90;;;;;;4997686;28;20053;-75
2023/12/31 07:39:56;;;;;;;1.33;1.00;;;8.20;99.90;;;;;;5004834;28;20034;-76
2023/12/31 07:42:21;;;;;;;1.23;1.02;;;8.20;99.90;;;;;;5001729;28;20498;-77
2023/12/31 07:44:47;;;;;;;2.42;1.95;;;8.20;99.90;;;;;;5003020;28;20120;-74
2023/12/31 07:47:12;;;;;;;1.95;1.40;;;8.20;99.90;;;;;;4994920;28;20038;-76
2023/12/31 07:49:38;;;;;;;1.77;1.20;;;8.20;99.90;;;;;;4986310;28;20601;-76
2023/12/31 07:52:04;;;;;;;1.63;1.20;;;8.20;99.90;;;;;;4993902;28;20030;-77
2023/12/31 07:54:29;;;;;;;2.05;1.65;;;8.20;99.90;;;;;;4982318;28;20050;-77
2023/12/31 07:56:55;;;;;;;1.15;1.00;;;8.20;99.90;;;;;;5016270;28;20086;-76
2023/12/31 07:59:21;;;;;;;0.68;0.68;;;8.30;99.90;;;;;;4981354;28;20198;-77
2023/12/31 08:01:46;;;;;;;1.67;1.35;;;8.20;99.90;;;;;;5017373;28;20479;-79
2023/12/31 08:04:12;;;;;;;2.72;1.65;;;8.20;99.90;;;;;;4999785;28;20037;-87
2023/12/31 08:06:38;;;;;;;1.85;0.82;;;8.20;99.90;;;;;;4996102;28;20054;-90
2023/12/31 08:09:03;;;;;;;1.73;1.38;;;8.20;99.90;;;;;;4995349;28;20050;-91
2023/12/31 08:11:29;;;;;;;1.63;0.80;;;8.20;99.90;;;;;;5026843;28;20416;-87
2023/12/31 08:13:54;;;;;;;1.38;0.85;;;8.20;99.90;;;;;;4975759;28;20492;-88
2023/12/31 08:16:20;;;;;;;2.90;1.35;;;8.20;99.90;;;;;;4988744;28;20050;-93
2023/12/31 08:18:46;;;;;;;0.80;0.80;;;8.20;99.90;;;;;;5002505;28;20042;-84
2023/12/31 08:21:12;;;;;;;2.55;1.05;;;8.20;99.90;;;;;;4987953;28;20152;-85
2023/12/31 08:23:38;;;;;;;3.15;0.98;;;8.20;99.90;;;;;;4984759;28;20461;-83
2023/12/31 08:26:03;;;;;;;1.08;0.93;;;8.20;99.90;;;;;;4988713;28;20038;-84
2023/12/31 08:28:30;;;;;;;0.90;0.65;;;8.20;99.90;;;;;;4990577;28;20145;-83
2023/12/31 08:30:55;;;;;;;1.77;1.08;;;8.20;99.90;;;;;;4986257;28;20101;-86
2023/12/31 08:33:21;;;;;;;3.47;1.10;;;8.20;99.90;;;;;;4997091;28;20046;-83
2023/12/31 08:35:47;;;;;;;3.13;0.73;;;8.20;99.90;;;;;;4971318;28;20051;-85
2023/12/31 08:38:13;;;;;;;2.55;1.20;;;8.30;99.90;;;;;;4986782;28;20089;-81
2023/12/31 08:40:39;;;;;;;2.80;1.52;;;8.30;99.90;;;;;;5016002;28;20057;-84
2023/12/31 08:43:04;;;;;;;1.27;1.17;;;8.30;99.90;;;;;;4965049;28;20468;-80
2023/12/31 08:45:32;;;;;;;2.13;0.95;;;8.30;99.90;;;;;;4989809;28;20658;-83
2023/12/31 08:47:58;;;;;;;2.15;0.88;;;8.30;99.90;;;;;;4983660;28;20046;-83
2023/12/31 08:50:24;;;;;;;1.23;0.95;;;8.30;99.90;;;;;;4993368;28;20433;-86
2023/12/31 08:52:49;;;;;;;2.47;1.73;;;8.30;99.90;;;;;;4987019;28;20751;-88
2023/12/31 08:55:16;;;;;;;2.05;1.50;;;8.30;99.90;;;;;;4967644;28;20477;-89
2023/12/31 08:57:44;;;;;;;2.42;1.10;;;8.40;99.90;;;;;;4984589;28;20042;-87
2023/12/31 09:00:11;;;;;;;1.88;1.05;;;8.40;99.90;;;;;;4969229;28;20038;-88
2023/12/31 09:02:36;;;;;;;2.45;1.13;;;8.40;99.90;;;;;;4991494;28;20105;-86
2023/12/31 09:05:02;;;;;;;2.97;1.33;;;8.50;99.90;;;;;;4988928;28;20433;-86
2023/12/31 09:07:28;;;;;;;2.45;1.50;;;8.50;99.90;;;;;;4989819;28;20042;-87
2023/12/31 09:09:54;;;;;;;0.90;0.73;;;8.50;99.90;;;;;;4968143;28;20124;-89
2023/12/31 09:12:20;;;;;;;2.42;1.10;;;8.50;99.90;;;;;;5003378;28;20183;-91
2023/12/31 09:14:48;;;;;;;2.10;1.23;;;8.50;99.90;;;;;;4965009;28;20057;-91
2023/12/31 09:17:14;;;;;;;2.53;1.55;;;8.50;99.90;;;;;;5006227;28;20038;-87
2023/12/31 09:19:40;;;;;;;2.92;1.05;;;8.50;99.90;;;;;;5001995;28;20136;-91
2023/12/31 09:22:06;;;;;;;3.85;0.98;;;8.50;99.90;;;;;;4994701;28;20497;-92
2023/12/31 09:24:32;;;;;;;3.00;0.88;;;8.50;99.90;;;;;;4984300;28;20042;-90
2023/12/31 09:26:58;;;;;;;1.70;1.02;;;8.50;99.90;;;;;;4998522;28;20378;-89
2023/12/31 09:29:24;;;;;;;1.67;1.38;;;8.40;99.90;;;;;;5003157;28;20038;-93
2023/12/31 09:31:50;;;;;;;0.90;0.90;;;8.50;99.90;;;;;;5015369;28;20071;-93
2023/12/31 09:34:16;;;;;;;2.03;1.58;;;8.50;99.90;;;;;;4970006;28;20042;-88
2023/12/31 09:36:42;;;;;;;3.05;1.27;;;8.40;99.90;;;;;;4972055;28;20038;-91
2023/12/31 09:39:08;;;;;;;2.72;1.42;;;8.40;99.90;;;;;;4979610;28;20050;-92
2023/12/31 09:41:35;;;;;;;1.45;1.00;;;8.40;99.90;;;;;;4989873;28;20050;-91
2023/12/31 09:44:11;;;;;;;1.40;1.30;;;8.40;99.90;;;;;;4975972;28;20658;-91
2023/12/31 09:46:38;;;;;;;2.53;1.52;;;8.40;99.90;;;;;;4999094;28;20132;-89
2023/12/31 09:49:05;;;;;;;3.10;2.00;;;8.40;99.90;;;;;;5000495;28;20047;-88
2023/12/31 09:51:32;;;;;;;1.52;0.82;;;8.40;99.90;;;;;;4984205;28;20046;-85
2023/12/31 09:53:59;;;;;;;2.65;1.42;;;8.40;99.90;;;;;;4982351;28;20041;-86
2023/12/31 09:56:27;;;;;;;1.02;0.75;;;8.40;99.90;;;;;;4984819;28;20053;-89
2023/12/31 09:58:56;;;;;;;4.18;1.48;;;8.40;99.90;;;;;;4983356;28;20038;-88
2023/12/31 10:01:28;;;;;;;4.00;1.63;;;8.40;99.90;;;;;;4984460;28;20073;-87
2023/12/31 10:03:53;;;;;;;2.55;1.35;;;8.50;99.90;;;;;;4968908;28;20053;-92
2023/12/31 10:06:19;;;;;;;1.83;1.35;;;8.50;99.90;;;;;;4975628;28;20117;-94
2023/12/31 10:08:50;;;;;;;1.17;0.80;;;8.50;99.90;;;;;;4966297;28;20511;-89
2023/12/31 10:11:16;;;;;;;2.08;1.30;;;8.50;99.90;;;;;;4969554;28;20039;-90
2023/12/31 10:13:44;;;;;;;1.10;0.98;;;8.60;99.90;;;;;;5003280;28;20042;-92
2023/12/31 10:16:13;;;;;;;3.08;1.25;;;8.60;99.90;;;;;;4997097;28;20046;-93
2023/12/31 10:18:39;;;;;;;2.72;1.25;;;8.60;99.90;;;;;;4996390;28;20109;-94
2023/12/31 10:21:08;;;;;;;3.55;1.33;;;8.60;99.90;;;;;;4998088;28;20126;-91
2023/12/31 10:23:34;;;;;;;4.30;2.13;;;8.60;99.90;;;;;;4965959;28;20038;-86
2023/12/31 10:26:00;;;;;;;1.58;1.42;;;8.60;99.90;;;;;;5000618;28;20108;-91
2023/12/31 10:28:27;;;;;;;3.08;1.52;;;8.60;99.90;;;;;;4995361;28;20093;-87
2023/12/31 10:30:53;;;;;;;2.45;1.58;;;8.60;99.90;;;;;;4996557;28;20074;-87
2023/12/31 10:33:26;;;;;;;1.90;1.73;;;8.70;99.90;;;;;;4969488;28;20173;-92
2023/12/31 10:36:03;;;;;;;1.65;1.38;;;8.60;99.90;;;;;;4967687;28;20246;-88
2023/12/31 10:38:28;;;;;;;1.52;1.38;;;8.70;99.90;;;;;;4988235;28;20042;-90
2023/12/31 10:41:09;;;;;;;1.83;1.58;;;8.70;99.90;;;;;;4983306;28;20048;-90
2023/12/31 10:43:39;;;;;;;2.38;1.27;;;8.70;99.90;;;;;;4983343;28;20056;-93
2023/12/31 10:46:07;;;;;;;3.58;1.65;;;8.70;99.90;;;;;;4960303;28;20030;-86
2023/12/31 10:48:34;;;;;;;4.68;2.25;;;8.70;99.90;;;;;;4965354;28;20042;-89
2023/12/31 10:51:05;;;;;;;1.92;1.45;;;8.70;99.90;;;;;;4998292;28;20038;-89
2023/12/31 10:53:39;;;;;;;1.20;1.10;;;8.60;99.90;;;;;;4982375;28;20042;-92
2023/12/31 10:56:10;;;;;;;0.63;0.55;;;8.60;99.90;;;;;;4978000;28;20046;-90
2023/12/31 10:58:36;;;;;;;1.20;0.80;;;8.60;99.90;;;;;;4985270;28;20092;-90
2023/12/31 11:01:02;;;;;;;5.28;1.40;;;8.40;99.90;;;;;;4995141;28;20035;-91
2023/12/31 11:03:33;;;;;;;1.17;0.60;;;8.40;99.90;;;;;;4984672;28;20474;-86
2023/12/31 11:06:01;;;;;;;0.60;0.60;;;8.40;99.90;;;;;;4976437;28;20045;-86
2023/12/31 11:08:28;;;;;;;1.00;0.57;;;8.30;99.90;;;;;;4969143;28;20060;-84
2023/12/31 11:10:54;;;;;;;2.80;0.90;;;8.30;99.90;;;;;;4972139;28;20038;-85
2023/12/31 11:13:22;;;;;;;3.13;0.98;;;8.30;99.90;;;;;;4983292;28;20821;-81
2023/12/31 11:15:53;;;;;;;1.80;0.80;;;8.20;99.90;;;;;;4981925;28;20066;-83
2023/12/31 11:18:52;;;;;;;2.42;1.17;;;8.20;99.90;;;;;;4996773;28;20117;-88
2023/12/31 11:21:41;;;;;;;1.55;0.63;;;8.20;99.90;;;;;;5028541;28;20042;-85
2023/12/31 11:24:16;;;;;;;0.35;0.35;;;8.10;99.90;;;;;;4984207;28;20042;-84
2023/12/31 11:26:42;;;;;;;1.17;0.30;;;8.10;99.90;;;;;;4987095;28;20047;-86
2023/12/31 11:29:11;;;;;;;0.43;0.38;;;8.10;99.90;;;;;;4986911;28;20399;-84
2023/12/31 11:31:41;;;;;;;2.85;0.52;;;8.10;99.90;;;;;;4988823;28;20054;-85
2023/12/31 11:34:10;;;;;;;0.82;0.35;;;8.10;99.90;;;;;;4989525;28;20114;-85
2023/12/31 11:36:36;;;;;;;1.52;1.15;;;8.10;99.90;;;;;;4990338;28;20096;-84
2023/12/31 11:39:14;;;;;;;1.35;0.60;;;8.10;99.90;;;;;;4988983;28;20174;-84
2023/12/31 11:41:50;;;;;;;1.48;0.65;;;8.10;99.90;;;;;;4988343;28;20575;-82
2023/12/31 11:44:41;;;;;;;2.05;0.55;;;8.20;99.90;;;;;;4984005;28;20044;-87
2023/12/31 11:47:21;;;;;;;0.90;0.70;;;8.20;99.90;;;;;;4986929;28;20069;-75
2023/12/31 11:49:50;;;;;;;6.22;0.98;;;8.30;99.90;;;;;;4993301;28;20646;-77
2023/12/31 11:52:19;;;;;;;2.40;0.63;;;8.40;99.90;;;;;;4984548;28;20133;-74
2023/12/31 11:54:45;;;;;;;1.25;0.45;;;8.40;99.90;;;;;;4984592;28;20054;-75
2023/12/31 11:57:13;;;;;;;0.15;0.15;;;8.50;99.90;;;;;;4983987;28;20507;-75
2023/12/31 11:59:44;;;;;;;0.40;0.40;;;8.50;99.90;;;;;;4966614;28;20134;-75
2023/12/31 12:02:10;;;;;;;4.95;0.80;;;8.50;99.90;;;;;;4977719;28;20401;-75
2023/12/31 12:04:36;;;;;;;0.40;0.20;;;8.50;99.90;;;;;;4984118;28;20050;-75
2023/12/31 12:07:03;;;;;;;0.20;0.20;;;8.50;99.90;;;;;;4983567;28;20035;-76
2023/12/31 12:09:31;;;;;;;2.38;0.43;;;8.50;99.90;;;;;;4985416;28;20382;-75
2023/12/31 12:12:10;;;;;;;0.10;0.10;;;8.60;99.90;;;;;;4986620;28;20038;-75
2023/12/31 12:14:35;;;;;;;0.20;0.20;;;8.60;99.90;;;;;;4996063;28;20121;-78
2023/12/31 12:17:03;;;;;;;0.88;0.60;;;8.60;99.90;;;;;;4995860;28;20042;-77
2023/12/31 12:19:32;;;;;;;0.35;0.30;;;8.60;99.90;;;;;;5020475;28;20046;-77
2023/12/31 12:22:00;;;;;;;1.55;0.20;;;8.50;99.90;;;;;;4983783;28;20058;-77
2023/12/31 12:24:27;;;;;;;0.45;0.20;;;8.50;99.90;;;;;;4994878;28;20050;-77
2023/12/31 12:26:52;;;;;;;0.47;0.47;;;8.50;99.90;;;;;;4985593;28;20050;-77
2023/12/31 12:29:18;;;;;;;0.30;0.30;;;8.50;99.90;;;;;;5002576;28;20052;-77
2023/12/31 12:31:46;;;;;;;2.50;0.70;;;8.50;99.90;;;;;;5002223;28;20042;-77
2023/12/31 12:34:16;;;;;;;0.45;0.45;;;8.50;99.90;;;;;;5002742;28;20054;-77
2023/12/31 12:36:43;;;;;;;0.90;0.63;;;8.50;99.90;;;;;;5001634;28;20042;-77
2023/12/31 12:39:14;;;;;;;3.55;0.60;;;8.50;99.90;;;;;;5001915;28;20045;-77
2023/12/31 12:41:50;;;;;;;0.20;0.20;;;8.50;99.90;;;;;;5002050;28;20410;-76
2023/12/31 12:44:16;;;;;;;0.63;0.40;;;8.50;99.90;;;;;;4985401;28;20046;-77
2023/12/31 12:46:44;;;;;;;0.60;0.45;;;8.40;99.90;;;;;;4982426;28;20050;-78
2023/12/31 12:49:12;;;;;;;0.88;0.43;;;8.50;99.90;;;;;;4984671;28;20583;-78
2023/12/31 12:51:40;;;;;;;1.75;0.65;;;8.40;99.90;;;;;;4983036;28;20169;-77
2023/12/31 12:54:06;;;;;;;1.10;0.75;;;8.40;99.90;;;;;;4982225;28;20447;-76